sensor_id;sensor_type;location;lat;lon;timestamp;temperature;humidity
27072;DHT22;14613;46.308;25.288;2022-09-13T00:01:16;13.30;74.60
27072;DHT22;14613;46.308;25.288;2022-09-13T00:03:42;13.30;74.80
27072;DHT22;14613;46.308;25.288;2022-09-13T00:06:13;13.20;74.90
27072;DHT22;14613;46.308;25.288;2022-09-13T00:08:40;13.10;75.00
27072;DHT22;14613;46.308;25.288;2022-09-13T00:11:06;13.00;75.10
27072;DHT22;14613;46.308;25.288;2022-09-13T00:13:32;12.90;75.30
27072;DHT22;14613;46.308;25.288;2022-09-13T00:15:58;12.80;75.70
27072;DHT22;14613;46.308;25.288;2022-09-13T00:18:27;12.60;76.00
27072;DHT22;14613;46.308;25.288;2022-09-13T00:21:03;12.50;76.40
27072;DHT22;14613;46.308;25.288;2022-09-13T00:23:29;12.40;76.80
27072;DHT22;14613;46.308;25.288;2022-09-13T00:26:06;12.40;76.90
27072;DHT22;14613;46.308;25.288;2022-09-13T00:28:32;12.40;77.10
27072;DHT22;14613;46.308;25.288;2022-09-13T00:31:00;12.40;77.10
27072;DHT22;14613;46.308;25.288;2022-09-13T00:33:26;12.30;77.20
27072;DHT22;14613;46.308;25.288;2022-09-13T00:35:52;12.30;77.20
27072;DHT22;14613;46.308;25.288;2022-09-13T00:38:18;12.30;77.20
27072;DHT22;14613;46.308;25.288;2022-09-13T00:40:44;12.30;77.30
27072;DHT22;14613;46.308;25.288;2022-09-13T00:43:20;12.30;77.70
27072;DHT22;14613;46.308;25.288;2022-09-13T00:45:47;12.20;77.50
27072;DHT22;14613;46.308;25.288;2022-09-13T00:48:23;12.10;77.70
27072;DHT22;14613;46.308;25.288;2022-09-13T00:50:53;12.10;78.80
27072;DHT22;14613;46.308;25.288;2022-09-13T00:53:27;12.10;78.00
27072;DHT22;14613;46.308;25.288;2022-09-13T00:56:19;12.10;78.00
27072;DHT22;14613;46.308;25.288;2022-09-13T00:59:20;12.10;78.10
27072;DHT22;14613;46.308;25.288;2022-09-13T01:01:52;12.10;78.20
27072;DHT22;14613;46.308;25.288;2022-09-13T01:04:20;12.10;78.10
27072;DHT22;14613;46.308;25.288;2022-09-13T01:06:48;12.10;78.20
27072;DHT22;14613;46.308;25.288;2022-09-13T01:09:16;12.00;78.20
27072;DHT22;14613;46.308;25.288;2022-09-13T01:11:47;12.00;78.20
27072;DHT22;14613;46.308;25.288;2022-09-13T01:14:16;12.00;78.50
27072;DHT22;14613;46.308;25.288;2022-09-13T01:16:42;11.90;78.70
27072;DHT22;14613;46.308;25.288;2022-09-13T01:19:08;11.80;79.00
27072;DHT22;14613;46.308;25.288;2022-09-13T01:33:09;11.70;79.70
27072;DHT22;14613;46.308;25.288;2022-09-13T01:38:51;11.70;79.80
27072;DHT22;14613;46.308;25.288;2022-09-13T01:44:13;11.70;79.70
27072;DHT22;14613;46.308;25.288;2022-09-13T01:52:20;11.70;79.80
27072;DHT22;14613;46.308;25.288;2022-09-13T01:55:05;11.70;79.90
27072;DHT22;14613;46.308;25.288;2022-09-13T02:00:36;11.60;80.00
27072;DHT22;14613;46.308;25.288;2022-09-13T02:03:10;11.60;80.00
27072;DHT22;14613;46.308;25.288;2022-09-13T02:06:05;11.50;80.20
27072;DHT22;14613;46.308;25.288;2022-09-13T02:08:46;11.50;80.40
27072;DHT22;14613;46.308;25.288;2022-09-13T02:11:15;11.40;80.30
27072;DHT22;14613;46.308;25.288;2022-09-13T02:13:58;11.50;80.30
27072;DHT22;14613;46.308;25.288;2022-09-13T02:16:27;11.40;80.40
27072;DHT22;14613;46.308;25.288;2022-09-13T02:18:58;11.40;80.40
27072;DHT22;14613;46.308;25.288;2022-09-13T02:21:31;11.40;80.60
27072;DHT22;14613;46.308;25.288;2022-09-13T02:24:23;11.30;80.80
27072;DHT22;14613;46.308;25.288;2022-09-13T02:26:51;11.20;80.90
27072;DHT22;14613;46.308;25.288;2022-09-13T02:29:20;11.20;80.90
27072;DHT22;14613;46.308;25.288;2022-09-13T02:31:57;11.20;81.10
27072;DHT22;14613;46.308;25.288;2022-09-13T02:34:40;11.10;81.10
27072;DHT22;14613;46.308;25.288;2022-09-13T02:37:08;11.10;81.20
27072;DHT22;14613;46.308;25.288;2022-09-13T02:39:38;11.10;81.40
27072;DHT22;14613;46.308;25.288;2022-09-13T02:44:50;11.00;81.50
27072;DHT22;14613;46.308;25.288;2022-09-13T02:50:06;11.00;81.70
27072;DHT22;14613;46.308;25.288;2022-09-13T02:58:57;11.00;81.70
27072;DHT22;14613;46.308;25.288;2022-09-13T03:01:25;11.00;81.80
27072;DHT22;14613;46.308;25.288;2022-09-13T03:03:51;11.00;81.70
27072;DHT22;14613;46.308;25.288;2022-09-13T03:06:28;10.90;81.70
27072;DHT22;14613;46.308;25.288;2022-09-13T03:08:56;10.90;81.80
27072;DHT22;14613;46.308;25.288;2022-09-13T03:14:19;10.90;82.00
27072;DHT22;14613;46.308;25.288;2022-09-13T03:25:05;10.80;82.20
27072;DHT22;14613;46.308;25.288;2022-09-13T03:27:37;10.80;82.30
27072;DHT22;14613;46.308;25.288;2022-09-13T03:30:09;10.80;82.30
27072;DHT22;14613;46.308;25.288;2022-09-13T03:35:41;10.80;82.30
27072;DHT22;14613;46.308;25.288;2022-09-13T03:38:16;10.70;82.40
27072;DHT22;14613;46.308;25.288;2022-09-13T03:40:59;10.70;82.50
27072;DHT22;14613;46.308;25.288;2022-09-13T03:46:03;10.60;82.60
27072;DHT22;14613;46.308;25.288;2022-09-13T03:52:19;10.60;82.90
27072;DHT22;14613;46.308;25.288;2022-09-13T03:54:45;10.50;82.90
27072;DHT22;14613;46.308;25.288;2022-09-13T03:57:19;10.50;82.80
27072;DHT22;14613;46.308;25.288;2022-09-13T03:59:53;10.50;82.90
27072;DHT22;14613;46.308;25.288;2022-09-13T04:02:21;10.40;83.10
27072;DHT22;14613;46.308;25.288;2022-09-13T04:04:48;10.40;83.10
27072;DHT22;14613;46.308;25.288;2022-09-13T04:07:16;10.40;83.20
27072;DHT22;14613;46.308;25.288;2022-09-13T04:09:42;10.40;83.30
27072;DHT22;14613;46.308;25.288;2022-09-13T04:12:08;10.40;83.30
27072;DHT22;14613;46.308;25.288;2022-09-13T04:14:39;10.30;83.40
27072;DHT22;14613;46.308;25.288;2022-09-13T04:17:05;10.30;83.50
27072;DHT22;14613;46.308;25.288;2022-09-13T04:19:31;10.40;83.60
27072;DHT22;14613;46.308;25.288;2022-09-13T04:21:57;10.40;83.50
27072;DHT22;14613;46.308;25.288;2022-09-13T04:24:26;10.30;83.40
27072;DHT22;14613;46.308;25.288;2022-09-13T04:26:52;10.40;83.50
27072;DHT22;14613;46.308;25.288;2022-09-13T04:29:19;10.30;83.40
27072;DHT22;14613;46.308;25.288;2022-09-13T04:31:45;10.30;83.60
27072;DHT22;14613;46.308;25.288;2022-09-13T04:34:12;10.30;83.70
27072;DHT22;14613;46.308;25.288;2022-09-13T04:36:38;10.30;83.80
27072;DHT22;14613;46.308;25.288;2022-09-13T04:39:04;10.30;83.90
27072;DHT22;14613;46.308;25.288;2022-09-13T04:48:34;10.40;84.30
27072;DHT22;14613;46.308;25.288;2022-09-13T04:51:03;10.50;84.30
27072;DHT22;14613;46.308;25.288;2022-09-13T04:53:30;10.50;84.00
27072;DHT22;14613;46.308;25.288;2022-09-13T04:56:03;10.50;84.10
27072;DHT22;14613;46.308;25.288;2022-09-13T04:58:30;10.50;84.20
27072;DHT22;14613;46.308;25.288;2022-09-13T05:01:07;10.50;84.30
27072;DHT22;14613;46.308;25.288;2022-09-13T05:03:34;10.50;84.30
27072;DHT22;14613;46.308;25.288;2022-09-13T05:06:08;10.60;84.30
27072;DHT22;14613;46.308;25.288;2022-09-13T05:08:35;10.50;84.40
27072;DHT22;14613;46.308;25.288;2022-09-13T05:11:01;10.60;84.70
27072;DHT22;14613;46.308;25.288;2022-09-13T05:13:27;10.70;84.90
27072;DHT22;14613;46.308;25.288;2022-09-13T05:16:11;10.70;85.10
27072;DHT22;14613;46.308;25.288;2022-09-13T05:18:39;10.90;85.80
27072;DHT22;14613;46.308;25.288;2022-09-13T05:21:05;11.10;85.80
27072;DHT22;14613;46.308;25.288;2022-09-13T05:23:31;11.40;86.00
27072;DHT22;14613;46.308;25.288;2022-09-13T05:26:02;11.60;85.20
27072;DHT22;14613;46.308;25.288;2022-09-13T05:28:30;11.70;84.90
27072;DHT22;14613;46.308;25.288;2022-09-13T05:31:06;11.80;84.70
27072;DHT22;14613;46.308;25.288;2022-09-13T05:33:35;12.00;84.90
27072;DHT22;14613;46.308;25.288;2022-09-13T05:36:03;12.10;84.90
27072;DHT22;14613;46.308;25.288;2022-09-13T05:38:29;12.30;84.90
27072;DHT22;14613;46.308;25.288;2022-09-13T05:41:00;12.40;84.60
27072;DHT22;14613;46.308;25.288;2022-09-13T05:43:31;12.50;84.20
27072;DHT22;14613;46.308;25.288;2022-09-13T05:46:11;12.60;84.10
27072;DHT22;14613;46.308;25.288;2022-09-13T05:48:37;12.70;83.80
27072;DHT22;14613;46.308;25.288;2022-09-13T05:51:33;12.70;83.40
27072;DHT22;14613;46.308;25.288;2022-09-13T05:53:58;12.80;83.30
27072;DHT22;14613;46.308;25.288;2022-09-13T05:56:26;12.80;83.10
27072;DHT22;14613;46.308;25.288;2022-09-13T05:58:53;12.70;83.00
27072;DHT22;14613;46.308;25.288;2022-09-13T06:01:22;12.80;83.00
27072;DHT22;14613;46.308;25.288;2022-09-13T06:03:53;12.80;83.10
27072;DHT22;14613;46.308;25.288;2022-09-13T06:06:21;13.00;84.40
27072;DHT22;14613;46.308;25.288;2022-09-13T06:08:48;13.40;85.30
27072;DHT22;14613;46.308;25.288;2022-09-13T06:11:16;13.90;84.90
27072;DHT22;14613;46.308;25.288;2022-09-13T06:13:42;14.40;84.20
27072;DHT22;14613;46.308;25.288;2022-09-13T06:16:10;14.70;83.50
27072;DHT22;14613;46.308;25.288;2022-09-13T06:18:41;15.10;83.10
27072;DHT22;14613;46.308;25.288;2022-09-13T06:21:09;15.50;82.50
27072;DHT22;14613;46.308;25.288;2022-09-13T06:23:38;15.80;81.30
27072;DHT22;14613;46.308;25.288;2022-09-13T06:26:10;16.10;80.60
27072;DHT22;14613;46.308;25.288;2022-09-13T06:28:37;16.40;79.50
27072;DHT22;14613;46.308;25.288;2022-09-13T06:31:08;16.60;79.20
27072;DHT22;14613;46.308;25.288;2022-09-13T06:33:35;16.90;78.60
27072;DHT22;14613;46.308;25.288;2022-09-13T06:36:10;17.20;77.70
27072;DHT22;14613;46.308;25.288;2022-09-13T06:38:38;17.40;76.60
27072;DHT22;14613;46.308;25.288;2022-09-13T06:41:15;17.60;76.20
27072;DHT22;14613;46.308;25.288;2022-09-13T06:43:43;17.90;75.90
27072;DHT22;14613;46.308;25.288;2022-09-13T06:46:11;18.30;75.60
27072;DHT22;14613;46.308;25.288;2022-09-13T06:48:39;18.70;75.10
27072;DHT22;14613;46.308;25.288;2022-09-13T06:51:09;19.10;74.40
27072;DHT22;14613;46.308;25.288;2022-09-13T06:53:36;19.50;73.20
27072;DHT22;14613;46.308;25.288;2022-09-13T06:56:10;19.90;72.20
27072;DHT22;14613;46.308;25.288;2022-09-13T06:58:38;20.10;70.80
27072;DHT22;14613;46.308;25.288;2022-09-13T07:01:14;20.20;69.90
27072;DHT22;14613;46.308;25.288;2022-09-13T07:04:10;20.20;69.20
27072;DHT22;14613;46.308;25.288;2022-09-13T07:06:42;20.20;68.40
27072;DHT22;14613;46.308;25.288;2022-09-13T07:09:11;20.10;68.50
27072;DHT22;14613;46.308;25.288;2022-09-13T07:11:39;20.00;69.00
27072;DHT22;14613;46.308;25.288;2022-09-13T07:14:06;19.90;68.60
27072;DHT22;14613;46.308;25.288;2022-09-13T07:16:34;19.90;69.50
27072;DHT22;14613;46.308;25.288;2022-09-13T07:19:04;19.80;68.60
27072;DHT22;14613;46.308;25.288;2022-09-13T07:21:31;19.80;68.40
27072;DHT22;14613;46.308;25.288;2022-09-13T07:23:57;19.80;68.10
27072;DHT22;14613;46.308;25.288;2022-09-13T07:26:25;19.80;68.00
27072;DHT22;14613;46.308;25.288;2022-09-13T07:28:56;19.60;67.90
27072;DHT22;14613;46.308;25.288;2022-09-13T07:31:25;19.50;67.80
27072;DHT22;14613;46.308;25.288;2022-09-13T07:33:56;19.40;67.80
27072;DHT22;14613;46.308;25.288;2022-09-13T07:36:23;19.20;68.10
27072;DHT22;14613;46.308;25.288;2022-09-13T07:38:49;19.20;68.30
27072;DHT22;14613;46.308;25.288;2022-09-13T07:41:17;19.20;68.40
27072;DHT22;14613;46.308;25.288;2022-09-13T07:43:43;19.10;68.40
27072;DHT22;14613;46.308;25.288;2022-09-13T07:46:14;19.20;68.40
27072;DHT22;14613;46.308;25.288;2022-09-13T07:48:41;19.20;68.40
27072;DHT22;14613;46.308;25.288;2022-09-13T07:51:08;19.20;68.30
27072;DHT22;14613;46.308;25.288;2022-09-13T07:53:35;19.20;68.40
27072;DHT22;14613;46.308;25.288;2022-09-13T07:56:10;19.30;68.40
27072;DHT22;14613;46.308;25.288;2022-09-13T07:58:37;19.40;68.00
27072;DHT22;14613;46.308;25.288;2022-09-13T08:01:08;19.40;67.90
27072;DHT22;14613;46.308;25.288;2022-09-13T08:03:35;19.40;68.00
27072;DHT22;14613;46.308;25.288;2022-09-13T08:06:02;19.50;68.00
27072;DHT22;14613;46.308;25.288;2022-09-13T08:08:29;19.50;67.80
27072;DHT22;14613;46.308;25.288;2022-09-13T08:10:55;19.60;67.50
27072;DHT22;14613;46.308;25.288;2022-09-13T08:13:20;19.50;67.30
27072;DHT22;14613;46.308;25.288;2022-09-13T08:15:46;19.40;67.10
27072;DHT22;14613;46.308;25.288;2022-09-13T08:18:14;19.50;67.30
27072;DHT22;14613;46.308;25.288;2022-09-13T08:20:40;19.50;67.00
27072;DHT22;14613;46.308;25.288;2022-09-13T08:23:07;19.50;66.80
27072;DHT22;14613;46.308;25.288;2022-09-13T08:25:33;19.50;66.60
27072;DHT22;14613;46.308;25.288;2022-09-13T08:28:07;19.50;66.70
27072;DHT22;14613;46.308;25.288;2022-09-13T08:30:34;19.50;66.50
27072;DHT22;14613;46.308;25.288;2022-09-13T08:33:02;19.50;66.40
27072;DHT22;14613;46.308;25.288;2022-09-13T08:35:29;19.50;65.80
27072;DHT22;14613;46.308;25.288;2022-09-13T08:37:55;19.50;65.80
27072;DHT22;14613;46.308;25.288;2022-09-13T08:40:22;19.40;65.80
27072;DHT22;14613;46.308;25.288;2022-09-13T08:45:28;19.50;66.00
27072;DHT22;14613;46.308;25.288;2022-09-13T08:48:04;19.60;66.20
27072;DHT22;14613;46.308;25.288;2022-09-13T08:50:37;19.70;66.10
27072;DHT22;14613;46.308;25.288;2022-09-13T08:53:27;19.80;66.20
27072;DHT22;14613;46.308;25.288;2022-09-13T08:56:02;19.90;65.80
27072;DHT22;14613;46.308;25.288;2022-09-13T09:04:10;20.00;65.20
27072;DHT22;14613;46.308;25.288;2022-09-13T09:06:38;20.10;65.10
27072;DHT22;14613;46.308;25.288;2022-09-13T09:09:14;20.20;65.00
27072;DHT22;14613;46.308;25.288;2022-09-13T09:11:58;20.10;64.50
27072;DHT22;14613;46.308;25.288;2022-09-13T09:14:40;20.20;64.50
27072;DHT22;14613;46.308;25.288;2022-09-13T09:17:25;20.10;64.20
27072;DHT22;14613;46.308;25.288;2022-09-13T09:20:02;20.10;65.30
27072;DHT22;14613;46.308;25.288;2022-09-13T09:22:33;20.10;64.50
27072;DHT22;14613;46.308;25.288;2022-09-13T09:25:01;20.10;64.30
27072;DHT22;14613;46.308;25.288;2022-09-13T09:27:30;20.10;64.20
27072;DHT22;14613;46.308;25.288;2022-09-13T09:29:57;20.10;64.10
27072;DHT22;14613;46.308;25.288;2022-09-13T09:32:37;20.20;64.00
27072;DHT22;14613;46.308;25.288;2022-09-13T09:35:45;20.20;63.90
27072;DHT22;14613;46.308;25.288;2022-09-13T09:38:35;20.20;63.40
27072;DHT22;14613;46.308;25.288;2022-09-13T09:41:28;20.20;63.40
27072;DHT22;14613;46.308;25.288;2022-09-13T09:44:12;20.20;63.20
27072;DHT22;14613;46.308;25.288;2022-09-13T09:46:44;20.20;63.20
27072;DHT22;14613;46.308;25.288;2022-09-13T09:52:22;20.20;62.80
27072;DHT22;14613;46.308;25.288;2022-09-13T09:54:58;20.20;63.10
27072;DHT22;14613;46.308;25.288;2022-09-13T09:58:18;20.20;63.00
27072;DHT22;14613;46.308;25.288;2022-09-13T10:00:57;20.20;62.70
27072;DHT22;14613;46.308;25.288;2022-09-13T10:03:25;20.10;62.80
27072;DHT22;14613;46.308;25.288;2022-09-13T10:08:32;20.20;63.10
27072;DHT22;14613;46.308;25.288;2022-09-13T10:10:59;20.40;63.40
27072;DHT22;14613;46.308;25.288;2022-09-13T10:13:27;20.60;63.00
27072;DHT22;14613;46.308;25.288;2022-09-13T10:16:20;20.70;62.70
27072;DHT22;14613;46.308;25.288;2022-09-13T10:18:47;20.90;62.80
27072;DHT22;14613;46.308;25.288;2022-09-13T10:23:42;21.00;61.70
27072;DHT22;14613;46.308;25.288;2022-09-13T10:26:10;20.90;61.50
27072;DHT22;14613;46.308;25.288;2022-09-13T10:29:12;20.80;61.50
27072;DHT22;14613;46.308;25.288;2022-09-13T10:31:42;20.80;61.90
27072;DHT22;14613;46.308;25.288;2022-09-13T10:34:17;20.80;62.50
27072;DHT22;14613;46.308;25.288;2022-09-13T10:37:12;20.90;62.70
27072;DHT22;14613;46.308;25.288;2022-09-13T10:40:07;21.10;62.40
27072;DHT22;14613;46.308;25.288;2022-09-13T10:42:36;21.20;61.70
27072;DHT22;14613;46.308;25.288;2022-09-13T10:45:07;21.20;61.50
27072;DHT22;14613;46.308;25.288;2022-09-13T10:47:36;21.20;61.20
27072;DHT22;14613;46.308;25.288;2022-09-13T10:50:26;21.30;61.20
27072;DHT22;14613;46.308;25.288;2022-09-13T10:58:10;21.70;60.90
27072;DHT22;14613;46.308;25.288;2022-09-13T11:05:54;22.10;59.50
27072;DHT22;14613;46.308;25.288;2022-09-13T11:08:40;22.20;59.10
27072;DHT22;14613;46.308;25.288;2022-09-13T11:11:14;22.30;59.00
27072;DHT22;14613;46.308;25.288;2022-09-13T11:30:02;22.70;58.20
27072;DHT22;14613;46.308;25.288;2022-09-13T11:41:12;22.80;57.70
27072;DHT22;14613;46.308;25.288;2022-09-13T11:43:54;22.80;57.00
27072;DHT22;14613;46.308;25.288;2022-09-13T11:49:18;22.70;57.30
27072;DHT22;14613;46.308;25.288;2022-09-13T11:57:51;22.60;57.10
27072;DHT22;14613;46.308;25.288;2022-09-13T12:00:22;22.70;56.80
27072;DHT22;14613;46.308;25.288;2022-09-13T12:05:48;22.80;57.60
27072;DHT22;14613;46.308;25.288;2022-09-13T12:10:55;22.90;56.60
27072;DHT22;14613;46.308;25.288;2022-09-13T12:13:44;22.90;56.50
27072;DHT22;14613;46.308;25.288;2022-09-13T12:16:37;22.90;56.40
27072;DHT22;14613;46.308;25.288;2022-09-13T12:19:12;22.90;56.30
27072;DHT22;14613;46.308;25.288;2022-09-13T12:21:41;22.80;56.20
27072;DHT22;14613;46.308;25.288;2022-09-13T12:24:22;22.80;56.30
27072;DHT22;14613;46.308;25.288;2022-09-13T12:27:05;22.80;56.20
27072;DHT22;14613;46.308;25.288;2022-09-13T12:32:04;22.70;56.30
27072;DHT22;14613;46.308;25.288;2022-09-13T12:40:04;22.40;55.80
27072;DHT22;14613;46.308;25.288;2022-09-13T12:42:56;22.20;55.90
27072;DHT22;14613;46.308;25.288;2022-09-13T13:02:25;22.60;56.70
27072;DHT22;14613;46.308;25.288;2022-09-13T13:04:55;22.70;56.70
27072;DHT22;14613;46.308;25.288;2022-09-13T13:07:22;22.80;56.80
27072;DHT22;14613;46.308;25.288;2022-09-13T13:09:51;22.80;56.70
27072;DHT22;14613;46.308;25.288;2022-09-13T13:12:33;22.90;56.60
27072;DHT22;14613;46.308;25.288;2022-09-13T13:17:49;23.10;56.40
27072;DHT22;14613;46.308;25.288;2022-09-13T13:39:12;23.30;55.20
27072;DHT22;14613;46.308;25.288;2022-09-13T13:59:48;23.20;54.70
27072;DHT22;14613;46.308;25.288;2022-09-13T14:02:18;23.10;54.80
27072;DHT22;14613;46.308;25.288;2022-09-13T14:10:16;22.80;55.10
27072;DHT22;14613;46.308;25.288;2022-09-13T14:20:32;22.30;55.30
27072;DHT22;14613;46.308;25.288;2022-09-13T14:23:18;22.20;55.40
27072;DHT22;14613;46.308;25.288;2022-09-13T14:25:44;22.10;55.50
27072;DHT22;14613;46.308;25.288;2022-09-13T14:28:16;22.00;55.70
27072;DHT22;14613;46.308;25.288;2022-09-13T14:30:44;21.80;55.90
27072;DHT22;14613;46.308;25.288;2022-09-13T14:33:28;21.80;56.00
27072;DHT22;14613;46.308;25.288;2022-09-13T14:36:03;21.60;56.10
27072;DHT22;14613;46.308;25.288;2022-09-13T14:38:32;21.50;56.40
27072;DHT22;14613;46.308;25.288;2022-09-13T14:41:18;21.50;56.70
27072;DHT22;14613;46.308;25.288;2022-09-13T14:43:46;21.40;56.80
27072;DHT22;14613;46.308;25.288;2022-09-13T14:46:31;21.30;56.90
27072;DHT22;14613;46.308;25.288;2022-09-13T14:49:06;21.30;57.10
27072;DHT22;14613;46.308;25.288;2022-09-13T14:51:44;21.20;57.30
27072;DHT22;14613;46.308;25.288;2022-09-13T14:54:22;21.10;57.50
27072;DHT22;14613;46.308;25.288;2022-09-13T14:56:52;21.00;57.50
27072;DHT22;14613;46.308;25.288;2022-09-13T14:59:26;21.00;57.60
27072;DHT22;14613;46.308;25.288;2022-09-13T15:01:53;20.90;57.70
27072;DHT22;14613;46.308;25.288;2022-09-13T15:04:20;20.90;57.90
27072;DHT22;14613;46.308;25.288;2022-09-13T15:07:05;20.80;57.90
27072;DHT22;14613;46.308;25.288;2022-09-13T15:09:32;20.70;58.00
27072;DHT22;14613;46.308;25.288;2022-09-13T15:12:00;20.60;58.10
27072;DHT22;14613;46.308;25.288;2022-09-13T15:14:35;20.60;58.30
27072;DHT22;14613;46.308;25.288;2022-09-13T15:17:12;20.50;58.40
27072;DHT22;14613;46.308;25.288;2022-09-13T15:19:42;20.40;58.50
27072;DHT22;14613;46.308;25.288;2022-09-13T15:22:23;20.40;59.40
27072;DHT22;14613;46.308;25.288;2022-09-13T15:24:52;20.40;59.00
27072;DHT22;14613;46.308;25.288;2022-09-13T15:27:25;20.40;59.10
27072;DHT22;14613;46.308;25.288;2022-09-13T15:30:03;20.50;59.10
27072;DHT22;14613;46.308;25.288;2022-09-13T15:32:34;20.50;59.80
27072;DHT22;14613;46.308;25.288;2022-09-13T15:35:26;20.40;59.10
27072;DHT22;14613;46.308;25.288;2022-09-13T15:38:06;20.40;59.10
27072;DHT22;14613;46.308;25.288;2022-09-13T15:40:44;20.40;59.20
27072;DHT22;14613;46.308;25.288;2022-09-13T15:43:11;20.30;59.30
27072;DHT22;14613;46.308;25.288;2022-09-13T15:45:36;20.30;59.50
27072;DHT22;14613;46.308;25.288;2022-09-13T15:48:03;20.20;59.50
27072;DHT22;14613;46.308;25.288;2022-09-13T15:50:30;20.20;59.50
27072;DHT22;14613;46.308;25.288;2022-09-13T15:52:58;20.10;59.80
27072;DHT22;14613;46.308;25.288;2022-09-13T15:55:26;20.10;59.90
27072;DHT22;14613;46.308;25.288;2022-09-13T15:57:53;20.10;60.10
27072;DHT22;14613;46.308;25.288;2022-09-13T16:00:23;20.10;60.10
27072;DHT22;14613;46.308;25.288;2022-09-13T16:02:49;20.00;60.10
27072;DHT22;14613;46.308;25.288;2022-09-13T16:05:15;19.90;60.10
27072;DHT22;14613;46.308;25.288;2022-09-13T16:07:42;19.80;60.10
27072;DHT22;14613;46.308;25.288;2022-09-13T16:10:34;19.80;60.40
27072;DHT22;14613;46.308;25.288;2022-09-13T16:13:00;19.80;60.90
27072;DHT22;14613;46.308;25.288;2022-09-13T16:15:25;19.70;60.90
27072;DHT22;14613;46.308;25.288;2022-09-13T16:17:52;19.70;61.10
27072;DHT22;14613;46.308;25.288;2022-09-13T16:20:18;19.70;61.30
27072;DHT22;14613;46.308;25.288;2022-09-13T16:22:44;19.60;61.50
27072;DHT22;14613;46.308;25.288;2022-09-13T16:25:14;19.60;61.60
27072;DHT22;14613;46.308;25.288;2022-09-13T16:27:41;19.50;61.80
27072;DHT22;14613;46.308;25.288;2022-09-13T16:30:10;19.60;62.00
27072;DHT22;14613;46.308;25.288;2022-09-13T16:32:37;19.50;62.00
27072;DHT22;14613;46.308;25.288;2022-09-13T16:35:03;19.50;62.10
27072;DHT22;14613;46.308;25.288;2022-09-13T16:37:29;19.40;62.30
27072;DHT22;14613;46.308;25.288;2022-09-13T16:39:55;19.40;62.40
27072;DHT22;14613;46.308;25.288;2022-09-13T16:42:25;19.40;62.60
27072;DHT22;14613;46.308;25.288;2022-09-13T16:44:51;19.30;62.70
27072;DHT22;14613;46.308;25.288;2022-09-13T16:47:17;19.30;62.80
27072;DHT22;14613;46.308;25.288;2022-09-13T16:49:46;19.30;63.10
27072;DHT22;14613;46.308;25.288;2022-09-13T16:52:18;19.30;63.10
27072;DHT22;14613;46.308;25.288;2022-09-13T16:54:47;19.20;63.20
27072;DHT22;14613;46.308;25.288;2022-09-13T16:57:14;19.20;63.30
27072;DHT22;14613;46.308;25.288;2022-09-13T16:59:39;19.10;63.40
27072;DHT22;14613;46.308;25.288;2022-09-13T17:02:11;19.10;63.50
27072;DHT22;14613;46.308;25.288;2022-09-13T17:04:37;19.00;63.60
27072;DHT22;14613;46.308;25.288;2022-09-13T17:07:03;19.00;63.70
27072;DHT22;14613;46.308;25.288;2022-09-13T17:09:31;19.00;63.90
27072;DHT22;14613;46.308;25.288;2022-09-13T17:11:57;18.90;64.00
27072;DHT22;14613;46.308;25.288;2022-09-13T17:14:26;18.90;64.10
27072;DHT22;14613;46.308;25.288;2022-09-13T17:16:58;18.80;64.30
27072;DHT22;14613;46.308;25.288;2022-09-13T17:19:29;18.80;64.40
27072;DHT22;14613;46.308;25.288;2022-09-13T17:21:56;18.80;64.70
27072;DHT22;14613;46.308;25.288;2022-09-13T17:24:29;18.70;64.70
27072;DHT22;14613;46.308;25.288;2022-09-13T17:27:11;18.70;65.00
27072;DHT22;14613;46.308;25.288;2022-09-13T17:29:37;18.70;65.20
27072;DHT22;14613;46.308;25.288;2022-09-13T17:32:04;18.70;65.20
27072;DHT22;14613;46.308;25.288;2022-09-13T17:34:33;18.60;65.20
27072;DHT22;14613;46.308;25.288;2022-09-13T17:37:25;18.60;65.30
27072;DHT22;14613;46.308;25.288;2022-09-13T17:39:51;18.60;65.50
27072;DHT22;14613;46.308;25.288;2022-09-13T17:42:17;18.60;65.40
27072;DHT22;14613;46.308;25.288;2022-09-13T17:44:43;18.50;65.50
27072;DHT22;14613;46.308;25.288;2022-09-13T17:50:26;18.50;65.90
27072;DHT22;14613;46.308;25.288;2022-09-13T17:53:23;18.40;65.90
27072;DHT22;14613;46.308;25.288;2022-09-13T17:55:49;18.40;66.10
27072;DHT22;14613;46.308;25.288;2022-09-13T17:58:15;18.40;66.10
27072;DHT22;14613;46.308;25.288;2022-09-13T18:01:12;18.30;66.20
27072;DHT22;14613;46.308;25.288;2022-09-13T18:03:38;18.30;66.40
27072;DHT22;14613;46.308;25.288;2022-09-13T18:06:05;18.20;66.20
27072;DHT22;14613;46.308;25.288;2022-09-13T18:11:41;18.10;66.60
27072;DHT22;14613;46.308;25.288;2022-09-13T18:14:19;18.10;67.50
27072;DHT22;14613;46.308;25.288;2022-09-13T18:16:46;18.10;66.80
27072;DHT22;14613;46.308;25.288;2022-09-13T18:22:38;18.00;67.00
27072;DHT22;14613;46.308;25.288;2022-09-13T18:25:08;17.90;67.00
27072;DHT22;14613;46.308;25.288;2022-09-13T18:27:34;17.90;67.10
27072;DHT22;14613;46.308;25.288;2022-09-13T18:30:00;17.80;67.30
27072;DHT22;14613;46.308;25.288;2022-09-13T18:32:27;17.80;67.50
27072;DHT22;14613;46.308;25.288;2022-09-13T18:38:15;17.70;67.80
27072;DHT22;14613;46.308;25.288;2022-09-13T18:41:13;17.70;67.80
27072;DHT22;14613;46.308;25.288;2022-09-13T18:43:42;17.60;67.90
27072;DHT22;14613;46.308;25.288;2022-09-13T18:49:42;17.50;68.00
27072;DHT22;14613;46.308;25.288;2022-09-13T18:52:08;17.50;68.30
27072;DHT22;14613;46.308;25.288;2022-09-13T18:54:54;17.40;68.10
27072;DHT22;14613;46.308;25.288;2022-09-13T18:57:19;17.40;68.50
27072;DHT22;14613;46.308;25.288;2022-09-13T18:59:49;17.30;68.50
27072;DHT22;14613;46.308;25.288;2022-09-13T19:02:14;17.30;68.70
27072;DHT22;14613;46.308;25.288;2022-09-13T19:08:06;17.30;69.30
27072;DHT22;14613;46.308;25.288;2022-09-13T19:10:38;17.20;69.20
27072;DHT22;14613;46.308;25.288;2022-09-13T19:16:31;17.10;69.80
27072;DHT22;14613;46.308;25.288;2022-09-13T19:18:57;17.00;69.80
27072;DHT22;14613;46.308;25.288;2022-09-13T19:27:51;16.80;70.70
27072;DHT22;14613;46.308;25.288;2022-09-13T19:30:17;16.80;70.70
27072;DHT22;14613;46.308;25.288;2022-09-13T19:32:43;16.80;70.90
27072;DHT22;14613;46.308;25.288;2022-09-13T19:35:09;16.70;71.00
27072;DHT22;14613;46.308;25.288;2022-09-13T19:37:34;16.70;71.10
27072;DHT22;14613;46.308;25.288;2022-09-13T19:40:00;16.70;71.30
27072;DHT22;14613;46.308;25.288;2022-09-13T19:42:26;16.60;71.30